createdAt,value
2022-08-30T00:00:00.082Z,23.32
2022-08-30T00:02:28.429Z,23.28
2022-08-30T00:04:57.443Z,23.26
2022-08-30T00:07:25.794Z,23.24
2022-08-30T00:09:54.866Z,23.21
2022-08-30T00:12:23.122Z,23.20
2022-08-30T00:14:51.394Z,23.16
2022-08-30T00:17:22.284Z,23.21
2022-08-30T00:19:50.604Z,23.19
2022-08-30T00:22:18.822Z,23.18
2022-08-30T00:24:46.964Z,23.18
2022-08-30T00:27:16.779Z,23.21
2022-08-30T00:29:45.840Z,23.24
2022-08-30T00:32:14.110Z,23.26
2022-08-30T00:34:42.332Z,23.26
2022-08-30T00:37:13.294Z,23.28
2022-08-30T00:39:41.535Z,23.34
2022-08-30T00:42:10.699Z,23.36
2022-08-30T00:44:39.443Z,23.41
2022-08-30T00:47:08.371Z,23.41
2022-08-30T00:49:39.778Z,23.41
2022-08-30T00:52:08.491Z,23.42
2022-08-30T00:54:39.595Z,23.43
2022-08-30T00:57:09.903Z,23.45
2022-08-30T00:59:38.429Z,23.49
2022-08-30T01:02:07.200Z,23.48
2022-08-30T01:04:37.224Z,23.53
2022-08-30T01:07:05.529Z,23.53
2022-08-30T01:09:34.375Z,23.57
2022-08-30T01:12:04.673Z,23.60
2022-08-30T01:14:33.922Z,23.62
2022-08-30T01:17:09.284Z,23.72
2022-08-30T01:20:05.903Z,23.78
2022-08-30T01:22:44.983Z,23.79
2022-08-30T01:25:19.172Z,23.75
2022-08-30T01:27:55.961Z,23.69
2022-08-30T01:30:24.451Z,23.61
2022-08-30T01:32:59.294Z,23.56
2022-08-30T01:35:28.820Z,23.46
2022-08-30T01:37:58.132Z,23.44
2022-08-30T01:40:26.533Z,23.45
2022-08-30T01:42:55.200Z,23.46
2022-08-30T01:45:23.430Z,23.47
2022-08-30T01:47:51.701Z,23.48
2022-08-30T01:50:20.088Z,23.45
2022-08-30T01:52:48.302Z,23.44
2022-08-30T01:55:16.506Z,23.44
2022-08-30T01:57:44.731Z,23.47
2022-08-30T02:00:13.676Z,23.49
2022-08-30T02:02:42.127Z,23.48
2022-08-30T02:05:11.182Z,23.42
2022-08-30T02:07:39.395Z,23.39
2022-08-30T02:10:08.108Z,23.38
2022-08-30T02:12:36.314Z,23.36
2022-08-30T02:15:06.512Z,23.43
2022-08-30T02:17:34.737Z,23.50
2022-08-30T02:20:04.055Z,23.60
2022-08-30T02:22:32.359Z,23.55
2022-08-30T02:25:01.073Z,23.45
2022-08-30T02:27:32.060Z,23.38
2022-08-30T02:30:00.269Z,23.34
2022-08-30T02:32:28.592Z,23.28
2022-08-30T02:34:56.762Z,23.22
2022-08-30T02:37:24.938Z,23.26
2022-08-30T02:39:53.184Z,23.32
2022-08-30T02:42:23.616Z,23.40
2022-08-30T02:44:51.783Z,23.45
2022-08-30T02:47:19.939Z,23.53
2022-08-30T02:49:49.237Z,23.59
2022-08-30T02:52:19.332Z,23.52
2022-08-30T02:54:59.774Z,23.46
2022-08-30T02:57:28.055Z,23.42
2022-08-30T02:59:59.543Z,23.49
2022-08-30T03:02:30.327Z,23.49
2022-08-30T03:04:58.782Z,23.39
2022-08-30T03:07:27.500Z,23.28
2022-08-30T03:09:55.771Z,23.26
2022-08-30T03:12:25.168Z,23.25
2022-08-30T03:14:53.716Z,23.22
2022-08-30T03:17:21.965Z,23.20
2022-08-30T03:19:50.232Z,23.23
2022-08-30T03:22:18.941Z,23.23
2022-08-30T03:24:47.167Z,23.20
2022-08-30T03:27:15.327Z,23.23
2022-08-30T03:29:43.493Z,23.24
2022-08-30T03:32:11.770Z,23.25
2022-08-30T03:34:40.162Z,23.24
2022-08-30T03:37:08.468Z,23.20
2022-08-30T03:39:36.816Z,23.18
2022-08-30T03:42:05.288Z,23.15
2022-08-30T03:44:33.478Z,23.21
2022-08-30T03:47:01.663Z,23.26
2022-08-30T03:49:29.878Z,23.25
2022-08-30T03:52:17.063Z,23.43
2022-08-30T03:54:46.809Z,23.35
2022-08-30T03:57:20.091Z,23.43
2022-08-30T03:59:48.736Z,23.46
2022-08-30T04:02:17.145Z,23.41
2022-08-30T04:04:45.380Z,23.36
2022-08-30T04:07:13.724Z,23.30
2022-08-30T04:09:41.937Z,23.29
2022-08-30T04:12:10.241Z,23.38
2022-08-30T04:14:38.641Z,23.38
2022-08-30T04:17:07.154Z,23.33
2022-08-30T04:19:35.405Z,23.38
2022-08-30T04:22:04.711Z,23.48
2022-08-30T04:24:34.485Z,23.48
2022-08-30T04:27:02.673Z,23.47
2022-08-30T04:29:30.862Z,23.36
2022-08-30T04:34:28.165Z,23.32
2022-08-30T04:36:56.446Z,23.24
2022-08-30T04:39:25.183Z,23.17
2022-08-30T04:41:53.335Z,23.08
2022-08-30T04:44:21.795Z,23.01
2022-08-30T04:46:49.983Z,23.02
2022-08-30T04:49:18.174Z,23.01
2022-08-30T04:51:46.525Z,22.96
2022-08-30T04:54:14.756Z,22.93
2022-08-30T04:56:43.845Z,22.95
2022-08-30T04:59:12.089Z,22.94
2022-08-30T05:01:45.251Z,22.97
2022-08-30T05:04:15.464Z,23.02
2022-08-30T05:06:44.250Z,23.06
2022-08-30T05:09:13.051Z,23.10
2022-08-30T05:11:43.271Z,23.10
2022-08-30T05:14:11.800Z,23.12
2022-08-30T05:16:41.575Z,23.16
2022-08-30T05:19:10.085Z,23.18
2022-08-30T05:21:40.712Z,23.14
2022-08-30T05:24:09.887Z,23.03
2022-08-30T05:26:39.736Z,22.91
2022-08-30T05:29:07.993Z,22.85
2022-08-30T05:31:37.169Z,22.78
2022-08-30T05:34:05.856Z,22.75
2022-08-30T05:36:36.128Z,22.70
2022-08-30T05:39:06.141Z,22.65
2022-08-30T05:41:34.581Z,22.63
2022-08-30T05:44:07.412Z,22.59
2022-08-30T05:46:39.754Z,22.56
2022-08-30T05:49:08.682Z,22.56
2022-08-30T05:51:43.444Z,22.54
2022-08-30T05:54:14.240Z,22.52
2022-08-30T05:56:45.270Z,22.52
2022-08-30T05:59:14.746Z,22.57
2022-08-30T06:01:46.022Z,22.59
2022-08-30T06:04:14.818Z,22.60
2022-08-30T06:06:44.875Z,22.61
2022-08-30T06:09:14.546Z,22.68
2022-08-30T06:11:43.844Z,22.75
2022-08-30T06:14:13.071Z,22.86
2022-08-30T06:16:44.128Z,23.02
2022-08-30T06:19:13.559Z,23.23
2022-08-30T06:21:45.813Z,23.56
2022-08-30T06:24:14.037Z,23.59
2022-08-30T06:26:45.362Z,23.73
2022-08-30T06:29:17.612Z,23.87
2022-08-30T06:31:46.290Z,24.45
2022-08-30T06:34:15.982Z,26.02
2022-08-30T06:36:44.377Z,27.69
2022-08-30T06:39:12.583Z,28.43
2022-08-30T06:41:41.709Z,27.81
2022-08-30T06:44:27.984Z,27.54
2022-08-30T06:46:58.558Z,27.07
2022-08-30T06:49:26.686Z,27.01
2022-08-30T06:51:54.933Z,26.94
2022-08-30T06:54:23.630Z,26.64
2022-08-30T06:56:59.262Z,26.74
2022-08-30T06:59:28.151Z,26.86
2022-08-30T07:01:57.655Z,26.81
2022-08-30T07:04:26.466Z,27.42
2022-08-30T07:06:54.851Z,27.81
2022-08-30T07:09:23.553Z,28.19
2022-08-30T07:11:54.900Z,28.55
2022-08-30T07:14:23.502Z,28.92
2022-08-30T07:16:52.244Z,29.26
2022-08-30T07:19:21.457Z,29.97
2022-08-30T07:21:50.701Z,30.17
2022-08-30T07:24:20.504Z,30.72
2022-08-30T07:26:52.085Z,31.65
2022-08-30T07:29:21.394Z,33.17
2022-08-30T07:31:50.095Z,33.06
2022-08-30T07:34:20.481Z,33.55
2022-08-30T07:36:50.560Z,33.76
2022-08-30T07:39:19.213Z,33.57
2022-08-30T07:41:48.685Z,33.15
2022-08-30T07:44:17.011Z,33.50
2022-08-30T07:46:45.371Z,33.22
2022-08-30T07:49:13.767Z,33.80
2022-08-30T07:51:42.507Z,34.04
2022-08-30T07:54:10.703Z,34.36
2022-08-30T07:56:39.031Z,34.06
2022-08-30T07:59:07.222Z,34.28
2022-08-30T08:01:35.545Z,34.02
2022-08-30T08:04:04.001Z,34.00
2022-08-30T08:06:34.827Z,34.49
2022-08-30T08:09:03.672Z,34.48
2022-08-30T08:11:33.834Z,34.03
2022-08-30T08:14:04.111Z,33.90
2022-08-30T08:16:34.882Z,32.99
2022-08-30T08:19:05.031Z,32.17
2022-08-30T08:21:33.207Z,31.88
2022-08-30T08:24:01.384Z,31.52
2022-08-30T08:26:29.667Z,31.22
2022-08-30T08:28:57.867Z,30.96
2022-08-30T08:31:31.403Z,30.45
2022-08-30T08:34:05.494Z,30.23
2022-08-30T08:36:34.503Z,29.98
2022-08-30T08:39:04.652Z,30.62
2022-08-30T08:41:45.037Z,30.84
2022-08-30T08:44:22.278Z,30.53
2022-08-30T08:47:13.684Z,30.52
2022-08-30T08:49:46.259Z,31.30
2022-08-30T08:52:41.471Z,32.02
2022-08-30T08:55:13.209Z,32.26
2022-08-30T08:57:42.035Z,31.79
2022-08-30T09:00:13.168Z,31.75
2022-08-30T09:02:46.887Z,31.28
2022-08-30T09:05:27.355Z,31.56
2022-08-30T09:08:09.980Z,31.91
2022-08-30T09:10:50.471Z,31.90
2022-08-30T09:13:22.696Z,32.05
2022-08-30T09:15:54.985Z,31.78
2022-08-30T09:18:45.649Z,31.32
2022-08-30T09:21:20.472Z,30.91
2022-08-30T09:23:50.909Z,30.76
2022-08-30T09:26:33.878Z,30.27
2022-08-30T09:29:02.482Z,30.47
2022-08-30T09:31:46.428Z,30.77
2022-08-30T09:34:20.366Z,31.08
2022-08-30T09:36:52.071Z,30.71
2022-08-30T09:39:28.414Z,30.40
2022-08-30T09:42:20.151Z,30.14
2022-08-30T09:44:48.407Z,30.07
2022-08-30T09:47:31.763Z,29.95
2022-08-30T09:50:24.308Z,30.04
2022-08-30T09:53:11.843Z,29.86
2022-08-30T09:55:52.989Z,29.98
2022-08-30T09:58:37.957Z,30.00
2022-08-30T10:01:42.940Z,30.10
2022-08-30T10:04:44.591Z,30.01
2022-08-30T10:07:29.101Z,29.79
2022-08-30T10:10:09.035Z,29.91
2022-08-30T10:13:00.260Z,29.78
2022-08-30T10:15:36.771Z,29.49
2022-08-30T10:18:28.116Z,29.39
2022-08-30T10:21:31.666Z,29.48
2022-08-30T10:24:06.575Z,29.85
2022-08-30T10:26:47.223Z,30.07
2022-08-30T10:29:39.493Z,30.48
2022-08-30T10:32:37.943Z,30.71
2022-08-30T10:35:19.633Z,30.65
2022-08-30T10:38:06.261Z,31.06
2022-08-30T10:41:01.173Z,30.99
2022-08-30T10:43:41.246Z,30.98
2022-08-30T10:46:20.039Z,30.89
2022-08-30T10:48:48.989Z,30.51
2022-08-30T10:51:36.788Z,30.46
2022-08-30T10:54:23.930Z,30.46
2022-08-30T10:56:54.535Z,30.14
2022-08-30T10:59:23.022Z,29.96
2022-08-30T11:02:06.648Z,29.98
2022-08-30T11:05:02.474Z,29.98
2022-08-30T11:07:55.729Z,30.41
2022-08-30T11:10:58.148Z,30.85
2022-08-30T11:13:29.932Z,30.48
2022-08-30T11:16:04.456Z,30.29
2022-08-30T11:18:53.593Z,30.33
2022-08-30T11:21:35.553Z,30.16
2022-08-30T11:24:31.684Z,30.18
2022-08-30T11:27:02.149Z,29.95
2022-08-30T11:29:37.688Z,29.43
2022-08-30T11:32:17.334Z,29.61
2022-08-30T11:34:45.764Z,29.79
2022-08-30T11:37:23.416Z,29.73
2022-08-30T11:39:55.076Z,29.85
2022-08-30T11:42:55.130Z,29.98
2022-08-30T11:45:26.883Z,30.24
2022-08-30T11:48:05.847Z,30.72
2022-08-30T11:51:01.780Z,30.79
2022-08-30T11:53:49.709Z,31.01
2022-08-30T11:56:33.012Z,30.72
2022-08-30T11:59:10.158Z,30.26
2022-08-30T12:01:51.991Z,30.10
2022-08-30T12:04:23.047Z,30.13
2022-08-30T12:07:02.397Z,30.27
2022-08-30T12:09:30.584Z,30.45
2022-08-30T12:12:09.599Z,30.40
2022-08-30T12:14:44.780Z,30.54
2022-08-30T12:17:46.094Z,30.69
2022-08-30T12:20:44.225Z,31.25
2022-08-30T12:23:27.150Z,31.52
2022-08-30T12:26:32.342Z,31.34
2022-08-30T12:29:25.334Z,31.74
2022-08-30T12:32:19.226Z,32.26
2022-08-30T12:34:52.614Z,31.85
2022-08-30T12:37:20.940Z,32.40
2022-08-30T12:39:59.962Z,32.89
2022-08-30T12:42:32.142Z,33.19
2022-08-30T12:45:07.348Z,33.68
2022-08-30T12:47:58.195Z,33.67
2022-08-30T12:50:34.496Z,33.30
2022-08-30T12:53:10.392Z,33.07
2022-08-30T12:56:01.880Z,32.68
2022-08-30T12:58:38.895Z,32.63
2022-08-30T13:01:18.571Z,32.53
2022-08-30T13:04:02.451Z,32.66
2022-08-30T13:06:56.300Z,32.83
2022-08-30T13:09:36.298Z,33.16
2022-08-30T13:12:30.275Z,33.50
2022-08-30T13:15:19.832Z,33.62
2022-08-30T13:17:48.186Z,33.96
2022-08-30T13:20:16.361Z,33.60
2022-08-30T13:23:07.157Z,33.70
2022-08-30T13:25:38.260Z,33.22
2022-08-30T13:28:08.070Z,33.29
2022-08-30T13:30:36.807Z,32.92
2022-08-30T13:33:05.114Z,33.02
2022-08-30T13:35:33.610Z,33.07
2022-08-30T13:38:02.628Z,32.97
2022-08-30T13:40:31.010Z,32.62
2022-08-30T13:42:59.306Z,32.40
2022-08-30T13:45:43.613Z,32.44
2022-08-30T13:48:13.668Z,32.89
2022-08-30T13:50:43.101Z,33.07
2022-08-30T13:53:11.560Z,33.16
2022-08-30T13:55:43.077Z,33.38
2022-08-30T13:58:13.724Z,33.07
2022-08-30T14:00:42.739Z,33.16
2022-08-30T14:03:12.615Z,33.04
2022-08-30T14:05:54.693Z,32.86
2022-08-30T14:08:48.521Z,32.66
2022-08-30T14:11:21.256Z,32.39
2022-08-30T14:16:43.552Z,32.06
2022-08-30T14:19:13.920Z,32.04
2022-08-30T14:21:43.122Z,32.00
2022-08-30T14:24:14.775Z,31.88
2022-08-30T14:26:51.308Z,31.80
2022-08-30T14:29:23.012Z,31.69
2022-08-30T14:31:56.604Z,31.58
2022-08-30T14:34:27.983Z,31.59
2022-08-30T14:36:56.936Z,31.51
2022-08-30T14:39:26.185Z,31.40
2022-08-30T14:41:56.431Z,31.34
2022-08-30T14:44:25.709Z,31.14
2022-08-30T14:46:56.263Z,31.10
2022-08-30T14:49:26.849Z,31.02
2022-08-30T14:51:56.034Z,30.87
2022-08-30T14:54:28.545Z,30.64
2022-08-30T14:56:57.542Z,30.61
2022-08-30T14:59:26.911Z,30.64
2022-08-30T15:01:55.609Z,30.47
2022-08-30T15:04:24.131Z,30.47
2022-08-30T15:06:53.669Z,30.41
2022-08-30T15:09:24.613Z,30.24
2022-08-30T15:11:58.784Z,30.24
2022-08-30T15:14:28.113Z,30.20
2022-08-30T15:16:58.387Z,30.15
2022-08-30T15:19:27.584Z,30.00
2022-08-30T15:22:00.957Z,30.06
2022-08-30T15:24:30.116Z,30.13
2022-08-30T15:27:00.181Z,30.16
2022-08-30T15:29:30.466Z,30.14
2022-08-30T15:32:01.713Z,30.07
2022-08-30T15:34:30.822Z,29.93
2022-08-30T15:36:59.543Z,29.73
2022-08-30T15:39:29.523Z,29.70
2022-08-30T15:42:01.289Z,29.65
2022-08-30T15:44:31.400Z,29.48
2022-08-30T15:46:59.901Z,29.43
2022-08-30T15:49:28.472Z,29.40
2022-08-30T15:52:01.783Z,29.17
2022-08-30T15:54:30.550Z,29.17
2022-08-30T15:56:59.473Z,29.07
2022-08-30T15:59:29.963Z,29.00
2022-08-30T16:01:58.301Z,28.97
2022-08-30T16:04:27.588Z,28.94
2022-08-30T16:06:56.162Z,28.98
2022-08-30T16:09:24.997Z,28.97
2022-08-30T16:11:53.290Z,28.99
2022-08-30T16:14:21.616Z,29.09
2022-08-30T16:16:50.147Z,29.06
2022-08-30T16:19:18.366Z,29.02
2022-08-30T16:21:47.496Z,28.98
2022-08-30T16:24:18.777Z,28.94
2022-08-30T16:26:51.115Z,28.93
2022-08-30T16:29:19.878Z,28.98
2022-08-30T16:31:51.069Z,28.99
2022-08-30T16:34:22.400Z,29.02
2022-08-30T16:36:50.739Z,29.00
2022-08-30T16:39:18.966Z,28.98
2022-08-30T16:41:48.592Z,28.87
2022-08-30T16:44:17.903Z,28.72
2022-08-30T16:46:53.062Z,28.57
2022-08-30T16:49:25.452Z,28.38
2022-08-30T16:51:54.453Z,28.21
2022-08-30T16:54:23.291Z,28.10
2022-08-30T16:56:52.261Z,27.96
2022-08-30T16:59:20.624Z,27.88
2022-08-30T17:01:49.240Z,27.84
2022-08-30T17:04:18.358Z,27.76
2022-08-30T17:06:49.538Z,27.65
2022-08-30T17:09:18.925Z,27.58
2022-08-30T17:11:47.940Z,27.54
2022-08-30T17:14:21.579Z,27.49
2022-08-30T17:16:56.562Z,27.43
2022-08-30T17:19:26.817Z,27.35
2022-08-30T17:21:59.467Z,27.31
2022-08-30T17:24:28.477Z,27.27
2022-08-30T17:26:58.312Z,27.21
2022-08-30T17:29:27.262Z,27.19
2022-08-30T17:31:56.087Z,27.13
2022-08-30T17:34:26.786Z,27.07
2022-08-30T17:36:57.140Z,27.11
2022-08-30T17:39:26.514Z,27.06
2022-08-30T17:41:54.844Z,26.98
2022-08-30T17:44:28.433Z,26.86
2022-08-30T17:46:57.657Z,26.76
2022-08-30T17:49:27.362Z,26.62
2022-08-30T17:51:57.153Z,26.35
2022-08-30T17:54:28.634Z,26.07
2022-08-30T17:56:58.259Z,25.90
2022-08-30T17:59:31.578Z,25.72
2022-08-30T18:02:01.880Z,25.54
2022-08-30T18:04:31.378Z,25.39
2022-08-30T18:06:59.652Z,25.37
2022-08-30T18:09:33.179Z,25.23
2022-08-30T18:12:02.569Z,25.08
2022-08-30T18:14:31.009Z,24.99
2022-08-30T18:16:59.922Z,25.05
2022-08-30T18:19:30.358Z,24.96
2022-08-30T18:21:59.125Z,24.90
2022-08-30T18:24:27.891Z,24.95
2022-08-30T18:26:56.272Z,24.97
2022-08-30T18:29:26.271Z,24.96
2022-08-30T18:32:01.680Z,24.98
2022-08-30T18:34:31.164Z,24.93
2022-08-30T18:36:59.748Z,24.88
2022-08-30T18:39:34.090Z,24.77
2022-08-30T18:42:09.025Z,24.70
2022-08-30T18:44:43.857Z,24.70
2022-08-30T18:47:12.348Z,24.61
2022-08-30T18:49:40.623Z,24.50
2022-08-30T18:52:11.081Z,24.51
2022-08-30T18:54:51.709Z,24.56
2022-08-30T18:57:25.472Z,24.53
2022-08-30T18:59:53.687Z,24.46
2022-08-30T19:02:22.490Z,24.32
2022-08-30T19:04:55.932Z,24.26
2022-08-30T19:07:26.726Z,24.36
2022-08-30T19:09:59.133Z,24.29
2022-08-30T19:12:27.718Z,24.35
2022-08-30T19:14:56.248Z,24.36
2022-08-30T19:17:26.129Z,24.40
2022-08-30T19:19:55.163Z,24.43
2022-08-30T19:22:27.419Z,24.32
2022-08-30T19:24:58.618Z,24.29
2022-08-30T19:27:37.447Z,24.29
2022-08-30T19:30:09.717Z,24.32
2022-08-30T19:32:37.986Z,24.35
2022-08-30T19:35:07.462Z,24.46
2022-08-30T19:37:37.110Z,24.51
2022-08-30T19:40:09.203Z,24.45
2022-08-30T19:42:43.253Z,24.38
2022-08-30T19:45:21.474Z,24.40
2022-08-30T19:47:50.929Z,24.35
2022-08-30T19:50:20.870Z,24.28
2022-08-30T19:52:54.131Z,24.23
2022-08-30T19:55:28.337Z,24.25
2022-08-30T19:57:58.436Z,24.22
2022-08-30T20:00:27.332Z,24.20
2022-08-30T20:03:01.463Z,24.24
2022-08-30T20:05:32.558Z,24.20
2022-08-30T20:08:01.201Z,24.14
2022-08-30T20:10:29.983Z,24.11
2022-08-30T20:13:04.128Z,24.05
2022-08-30T20:15:33.409Z,23.98
2022-08-30T20:18:06.331Z,23.94
2022-08-30T20:20:49.945Z,23.97
2022-08-30T20:23:23.446Z,24.09
2022-08-30T20:25:55.454Z,24.14
2022-08-30T20:28:27.008Z,24.17
2022-08-30T20:30:56.476Z,24.19
2022-08-30T20:33:25.861Z,24.26
2022-08-30T20:36:01.728Z,24.27
2022-08-30T20:38:29.970Z,24.15
2022-08-30T20:41:01.034Z,23.99
2022-08-30T20:43:33.306Z,23.88
2022-08-30T20:46:09.087Z,23.72
2022-08-30T20:48:40.982Z,23.56
2022-08-30T20:51:12.544Z,23.50
2022-08-30T20:53:41.174Z,23.51
2022-08-30T20:56:16.774Z,23.43
2022-08-30T20:58:45.782Z,23.38
2022-08-30T21:01:14.536Z,23.28
2022-08-30T21:03:45.158Z,23.27
2022-08-30T21:06:13.890Z,23.23
2022-08-30T21:08:42.327Z,23.16
2022-08-30T21:11:10.806Z,23.28
2022-08-30T21:13:39.477Z,23.25
2022-08-30T21:16:08.675Z,23.19
2022-08-30T21:18:40.564Z,23.25
2022-08-30T21:21:21.528Z,23.28
2022-08-30T21:23:50.569Z,23.23
2022-08-30T21:26:19.996Z,23.25
2022-08-30T21:28:53.223Z,23.34
2022-08-30T21:31:27.576Z,23.44
2022-08-30T21:33:56.488Z,23.44
2022-08-30T21:36:45.089Z,23.45
2022-08-30T21:39:24.022Z,23.51
2022-08-30T21:41:56.832Z,23.57
2022-08-30T21:44:26.653Z,23.72
2022-08-30T21:46:55.384Z,23.70
2022-08-30T21:49:24.567Z,23.62
2022-08-30T21:51:55.295Z,23.67
2022-08-30T21:54:24.879Z,23.61
2022-08-30T21:57:00.976Z,23.48
2022-08-30T21:59:29.455Z,23.37
2022-08-30T22:01:59.180Z,23.23
2022-08-30T22:04:28.161Z,23.19
2022-08-30T22:06:56.455Z,23.17
2022-08-30T22:09:25.756Z,23.14
2022-08-30T22:11:54.822Z,23.16
2022-08-30T22:14:23.482Z,23.27
2022-08-30T22:16:51.964Z,23.28
2022-08-30T22:19:23.247Z,23.26
2022-08-30T22:22:00.648Z,23.20
2022-08-30T22:24:32.715Z,23.29
2022-08-30T22:27:02.834Z,23.43
2022-08-30T22:29:31.134Z,23.52
2022-08-30T22:31:59.859Z,23.47
2022-08-30T22:34:28.626Z,23.46
2022-08-30T22:36:57.000Z,23.60
2022-08-30T22:39:25.905Z,23.50
2022-08-30T22:41:54.320Z,23.37
2022-08-30T22:44:25.087Z,23.31
2022-08-30T22:46:53.243Z,23.23
2022-08-30T22:49:21.573Z,23.24
2022-08-30T22:51:49.775Z,23.35
2022-08-30T22:54:17.952Z,23.30
2022-08-30T22:56:49.981Z,23.12
2022-08-30T22:59:18.295Z,23.05
2022-08-30T23:01:47.138Z,22.97
2022-08-30T23:04:15.443Z,22.92
2022-08-30T23:06:49.850Z,22.88
2022-08-30T23:09:18.980Z,22.98
2022-08-30T23:11:47.355Z,22.90
2022-08-30T23:14:15.623Z,22.88
2022-08-30T23:16:43.867Z,22.97
2022-08-30T23:19:12.126Z,22.96
2022-08-30T23:21:40.500Z,22.97
2022-08-30T23:24:27.199Z,23.07
2022-08-30T23:27:14.250Z,23.08
2022-08-30T23:30:00.905Z,23.12
2022-08-30T23:32:47.802Z,23.21
2022-08-30T23:35:34.694Z,23.28
2022-08-30T23:38:25.743Z,23.38
2022-08-30T23:41:13.109Z,23.49
2022-08-30T23:43:59.931Z,23.49
2022-08-30T23:46:46.718Z,23.30
2022-08-30T23:49:33.433Z,23.11
2022-08-30T23:52:20.012Z,22.87
2022-08-30T23:55:06.896Z,22.82
2022-08-30T23:57:53.403Z,22.79
